sensor_id;sensor_type;location;lat;lon;timestamp;P1;durP1;ratioP1;P2;durP2;ratioP2
67981;SDS011;64109;52.148;4.466;2022-10-31T00:00:45;3.58;;;2.33;;
67981;SDS011;64109;52.148;4.466;2022-10-31T00:03:11;4.72;;;2.30;;
67981;SDS011;64109;52.148;4.466;2022-10-31T00:05:40;3.45;;;1.63;;
67981;SDS011;64109;52.148;4.466;2022-10-31T00:10:32;2.80;;;1.50;;
67981;SDS011;64109;52.148;4.466;2022-10-31T00:12:58;3.25;;;1.40;;
67981;SDS011;64109;52.148;4.466;2022-10-31T00:15:23;4.55;;;1.98;;
67981;SDS011;64109;52.148;4.466;2022-10-31T00:17:49;4.47;;;2.17;;
67981;SDS011;64109;52.148;4.466;2022-10-31T00:20:15;3.45;;;2.13;;
67981;SDS011;64109;52.148;4.466;2022-10-31T00:22:41;7.57;;;3.15;;
67981;SDS011;64109;52.148;4.466;2022-10-31T00:25:07;3.03;;;2.10;;
67981;SDS011;64109;52.148;4.466;2022-10-31T00:27:33;3.72;;;2.13;;
67981;SDS011;64109;52.148;4.466;2022-10-31T00:29:59;3.70;;;1.92;;
67981;SDS011;64109;52.148;4.466;2022-10-31T00:32:28;3.15;;;1.90;;
67981;SDS011;64109;52.148;4.466;2022-10-31T00:34:55;2.33;;;1.88;;
67981;SDS011;64109;52.148;4.466;2022-10-31T00:37:21;5.63;;;2.25;;
67981;SDS011;64109;52.148;4.466;2022-10-31T00:39:46;3.33;;;1.92;;
67981;SDS011;64109;52.148;4.466;2022-10-31T00:42:14;2.35;;;1.80;;
67981;SDS011;64109;52.148;4.466;2022-10-31T00:44:40;3.13;;;1.90;;
67981;SDS011;64109;52.148;4.466;2022-10-31T00:47:06;3.45;;;1.50;;
67981;SDS011;64109;52.148;4.466;2022-10-31T00:49:32;3.60;;;1.25;;
67981;SDS011;64109;52.148;4.466;2022-10-31T00:51:58;3.28;;;1.83;;
67981;SDS011;64109;52.148;4.466;2022-10-31T00:54:24;2.28;;;2.00;;
67981;SDS011;64109;52.148;4.466;2022-10-31T00:56:50;3.22;;;2.00;;
67981;SDS011;64109;52.148;4.466;2022-10-31T00:59:16;2.33;;;1.75;;
67981;SDS011;64109;52.148;4.466;2022-10-31T01:01:42;2.17;;;1.92;;
67981;SDS011;64109;52.148;4.466;2022-10-31T01:04:08;3.53;;;2.05;;
67981;SDS011;64109;52.148;4.466;2022-10-31T01:06:34;3.83;;;1.20;;
67981;SDS011;64109;52.148;4.466;2022-10-31T01:09:00;2.15;;;1.55;;
67981;SDS011;64109;52.148;4.466;2022-10-31T01:11:26;4.03;;;2.03;;
67981;SDS011;64109;52.148;4.466;2022-10-31T01:13:52;4.03;;;1.67;;
67981;SDS011;64109;52.148;4.466;2022-10-31T01:16:20;2.33;;;1.65;;
67981;SDS011;64109;52.148;4.466;2022-10-31T01:18:47;2.58;;;1.90;;
67981;SDS011;64109;52.148;4.466;2022-10-31T01:21:14;2.63;;;1.63;;
67981;SDS011;64109;52.148;4.466;2022-10-31T01:23:40;2.72;;;1.70;;
67981;SDS011;64109;52.148;4.466;2022-10-31T01:28:33;2.95;;;1.75;;
67981;SDS011;64109;52.148;4.466;2022-10-31T01:31:00;2.03;;;1.35;;
67981;SDS011;64109;52.148;4.466;2022-10-31T01:33:26;2.55;;;1.95;;
67981;SDS011;64109;52.148;4.466;2022-10-31T01:35:52;2.80;;;1.95;;
67981;SDS011;64109;52.148;4.466;2022-10-31T01:38:18;1.63;;;0.85;;
67981;SDS011;64109;52.148;4.466;2022-10-31T01:40:44;2.78;;;2.00;;
67981;SDS011;64109;52.148;4.466;2022-10-31T01:43:12;3.90;;;0.90;;
67981;SDS011;64109;52.148;4.466;2022-10-31T01:45:38;2.53;;;1.67;;
67981;SDS011;64109;52.148;4.466;2022-10-31T01:48:04;4.47;;;1.15;;
67981;SDS011;64109;52.148;4.466;2022-10-31T01:50:39;3.92;;;1.90;;
67981;SDS011;64109;52.148;4.466;2022-10-31T01:53:05;2.72;;;1.75;;
67981;SDS011;64109;52.148;4.466;2022-10-31T01:55:35;3.63;;;2.13;;
67981;SDS011;64109;52.148;4.466;2022-10-31T01:58:05;2.95;;;1.77;;
67981;SDS011;64109;52.148;4.466;2022-10-31T02:00:32;2.30;;;1.80;;
67981;SDS011;64109;52.148;4.466;2022-10-31T02:02:58;2.40;;;1.33;;
67981;SDS011;64109;52.148;4.466;2022-10-31T02:05:25;1.77;;;1.50;;
67981;SDS011;64109;52.148;4.466;2022-10-31T02:08:53;2.15;;;1.58;;
67981;SDS011;64109;52.148;4.466;2022-10-31T02:10:47;2.40;;;1.50;;
67981;SDS011;64109;52.148;4.466;2022-10-31T02:13:13;2.60;;;1.00;;
67981;SDS011;64109;52.148;4.466;2022-10-31T02:15:40;3.22;;;1.52;;
67981;SDS011;64109;52.148;4.466;2022-10-31T02:18:06;2.60;;;1.13;;
67981;SDS011;64109;52.148;4.466;2022-10-31T02:20:39;3.88;;;1.60;;
67981;SDS011;64109;52.148;4.466;2022-10-31T02:33:27;1.88;;;1.45;;
67981;SDS011;64109;52.148;4.466;2022-10-31T02:43:33;2.90;;;1.58;;
67981;SDS011;64109;52.148;4.466;2022-10-31T02:46:11;2.70;;;2.05;;
67981;SDS011;64109;52.148;4.466;2022-10-31T02:48:39;3.25;;;1.70;;
67981;SDS011;64109;52.148;4.466;2022-10-31T02:51:07;3.72;;;1.63;;
67981;SDS011;64109;52.148;4.466;2022-10-31T02:53:34;2.03;;;1.58;;
67981;SDS011;64109;52.148;4.466;2022-10-31T02:56:02;3.55;;;2.38;;
67981;SDS011;64109;52.148;4.466;2022-10-31T02:58:31;2.13;;;1.60;;
67981;SDS011;64109;52.148;4.466;2022-10-31T03:01:06;2.58;;;1.83;;
67981;SDS011;64109;52.148;4.466;2022-10-31T03:08:30;2.58;;;1.65;;
67981;SDS011;64109;52.148;4.466;2022-10-31T03:16:13;3.35;;;2.10;;
67981;SDS011;64109;52.148;4.466;2022-10-31T03:18:43;2.60;;;2.00;;
67981;SDS011;64109;52.148;4.466;2022-10-31T03:21:14;1.90;;;0.80;;
67981;SDS011;64109;52.148;4.466;2022-10-31T03:23:43;3.42;;;2.03;;
67981;SDS011;64109;52.148;4.466;2022-10-31T03:26:10;2.08;;;1.60;;
67981;SDS011;64109;52.148;4.466;2022-10-31T03:29:20;2.63;;;2.08;;
67981;SDS011;64109;52.148;4.466;2022-10-31T03:31:27;1.90;;;1.65;;
67981;SDS011;64109;52.148;4.466;2022-10-31T03:33:55;3.08;;;0.98;;
67981;SDS011;64109;52.148;4.466;2022-10-31T03:36:22;2.20;;;1.65;;
67981;SDS011;64109;52.148;4.466;2022-10-31T03:38:48;2.00;;;1.50;;
67981;SDS011;64109;52.148;4.466;2022-10-31T03:41:16;2.88;;;1.83;;
67981;SDS011;64109;52.148;4.466;2022-10-31T03:43:46;2.42;;;1.85;;
67981;SDS011;64109;52.148;4.466;2022-10-31T03:46:14;2.35;;;1.60;;
67981;SDS011;64109;52.148;4.466;2022-10-31T03:48:40;3.08;;;1.77;;
67981;SDS011;64109;52.148;4.466;2022-10-31T03:51:22;2.75;;;1.88;;
67981;SDS011;64109;52.148;4.466;2022-10-31T03:56:33;1.80;;;1.58;;
67981;SDS011;64109;52.148;4.466;2022-10-31T04:01:27;1.75;;;1.52;;
67981;SDS011;64109;52.148;4.466;2022-10-31T04:03:56;2.33;;;1.75;;
67981;SDS011;64109;52.148;4.466;2022-10-31T04:06:22;1.80;;;1.48;;
67981;SDS011;64109;52.148;4.466;2022-10-31T04:08:57;2.20;;;1.60;;
67981;SDS011;64109;52.148;4.466;2022-10-31T04:11:25;2.28;;;1.73;;
67981;SDS011;64109;52.148;4.466;2022-10-31T04:13:53;2.20;;;1.73;;
67981;SDS011;64109;52.148;4.466;2022-10-31T04:16:20;2.95;;;1.45;;
67981;SDS011;64109;52.148;4.466;2022-10-31T04:18:47;1.77;;;1.63;;
67981;SDS011;64109;52.148;4.466;2022-10-31T04:21:13;2.30;;;1.85;;
67981;SDS011;64109;52.148;4.466;2022-10-31T04:23:39;2.40;;;1.10;;
67981;SDS011;64109;52.148;4.466;2022-10-31T04:26:05;3.10;;;1.70;;
67981;SDS011;64109;52.148;4.466;2022-10-31T04:28:31;2.92;;;1.20;;
67981;SDS011;64109;52.148;4.466;2022-10-31T04:30:58;1.40;;;0.80;;
67981;SDS011;64109;52.148;4.466;2022-10-31T04:33:24;1.75;;;1.55;;
67981;SDS011;64109;52.148;4.466;2022-10-31T04:35:50;2.30;;;2.05;;
67981;SDS011;64109;52.148;4.466;2022-10-31T04:38:16;2.55;;;1.88;;
67981;SDS011;64109;52.148;4.466;2022-10-31T04:40:42;1.90;;;1.50;;
67981;SDS011;64109;52.148;4.466;2022-10-31T04:43:08;2.00;;;1.65;;
67981;SDS011;64109;52.148;4.466;2022-10-31T04:45:34;1.73;;;1.05;;
67981;SDS011;64109;52.148;4.466;2022-10-31T04:48:00;1.92;;;1.50;;
67981;SDS011;64109;52.148;4.466;2022-10-31T04:50:26;2.50;;;1.55;;
67981;SDS011;64109;52.148;4.466;2022-10-31T04:52:52;3.85;;;2.03;;
67981;SDS011;64109;52.148;4.466;2022-10-31T04:55:18;1.95;;;1.73;;
67981;SDS011;64109;52.148;4.466;2022-10-31T04:57:45;2.28;;;2.08;;
67981;SDS011;64109;52.148;4.466;2022-10-31T05:00:11;1.90;;;1.60;;
67981;SDS011;64109;52.148;4.466;2022-10-31T05:05:10;1.77;;;1.63;;
67981;SDS011;64109;52.148;4.466;2022-10-31T05:07:40;4.55;;;1.95;;
67981;SDS011;64109;52.148;4.466;2022-10-31T05:10:06;1.52;;;1.05;;
67981;SDS011;64109;52.148;4.466;2022-10-31T05:12:34;2.22;;;1.67;;
67981;SDS011;64109;52.148;4.466;2022-10-31T05:15:00;2.20;;;2.00;;
67981;SDS011;64109;52.148;4.466;2022-10-31T05:17:26;3.22;;;1.98;;
67981;SDS011;64109;52.148;4.466;2022-10-31T05:19:52;2.38;;;1.77;;
67981;SDS011;64109;52.148;4.466;2022-10-31T05:22:18;2.47;;;1.98;;
67981;SDS011;64109;52.148;4.466;2022-10-31T05:24:44;3.85;;;1.80;;
67981;SDS011;64109;52.148;4.466;2022-10-31T05:27:10;2.00;;;1.80;;
67981;SDS011;64109;52.148;4.466;2022-10-31T05:29:36;2.40;;;2.10;;
67981;SDS011;64109;52.148;4.466;2022-10-31T05:32:02;4.05;;;2.30;;
67981;SDS011;64109;52.148;4.466;2022-10-31T05:34:28;2.15;;;1.80;;
67981;SDS011;64109;52.148;4.466;2022-10-31T05:36:54;3.08;;;1.75;;
67981;SDS011;64109;52.148;4.466;2022-10-31T05:39:20;3.38;;;2.00;;
67981;SDS011;64109;52.148;4.466;2022-10-31T05:41:46;1.73;;;1.10;;
67981;SDS011;64109;52.148;4.466;2022-10-31T05:44:12;3.05;;;2.00;;
67981;SDS011;64109;52.148;4.466;2022-10-31T05:46:38;1.83;;;1.63;;
67981;SDS011;64109;52.148;4.466;2022-10-31T05:49:04;3.40;;;2.05;;
67981;SDS011;64109;52.148;4.466;2022-10-31T05:51:29;2.67;;;1.95;;
67981;SDS011;64109;52.148;4.466;2022-10-31T05:53:55;2.45;;;2.17;;
67981;SDS011;64109;52.148;4.466;2022-10-31T05:56:21;2.10;;;1.80;;
67981;SDS011;64109;52.148;4.466;2022-10-31T05:58:47;4.57;;;1.95;;
67981;SDS011;64109;52.148;4.466;2022-10-31T06:01:13;2.25;;;1.90;;
67981;SDS011;64109;52.148;4.466;2022-10-31T06:03:39;2.65;;;2.08;;
67981;SDS011;64109;52.148;4.466;2022-10-31T06:06:05;2.45;;;1.77;;
67981;SDS011;64109;52.148;4.466;2022-10-31T06:08:31;2.65;;;2.03;;
67981;SDS011;64109;52.148;4.466;2022-10-31T06:10:57;2.80;;;1.85;;
67981;SDS011;64109;52.148;4.466;2022-10-31T06:13:23;3.58;;;2.15;;
67981;SDS011;64109;52.148;4.466;2022-10-31T06:15:49;2.67;;;2.05;;
67981;SDS011;64109;52.148;4.466;2022-10-31T06:18:15;3.25;;;2.20;;
67981;SDS011;64109;52.148;4.466;2022-10-31T06:20:41;2.33;;;1.95;;
67981;SDS011;64109;52.148;4.466;2022-10-31T06:23:07;2.35;;;1.10;;
67981;SDS011;64109;52.148;4.466;2022-10-31T06:25:33;2.58;;;1.80;;
67981;SDS011;64109;52.148;4.466;2022-10-31T06:27:59;2.90;;;2.10;;
67981;SDS011;64109;52.148;4.466;2022-10-31T06:30:25;2.83;;;1.80;;
67981;SDS011;64109;52.148;4.466;2022-10-31T06:32:51;2.63;;;2.13;;
67981;SDS011;64109;52.148;4.466;2022-10-31T06:35:17;3.05;;;1.48;;
67981;SDS011;64109;52.148;4.466;2022-10-31T06:37:50;3.40;;;2.25;;
67981;SDS011;64109;52.148;4.466;2022-10-31T06:40:16;6.10;;;2.60;;
67981;SDS011;64109;52.148;4.466;2022-10-31T06:42:42;4.55;;;2.13;;
67981;SDS011;64109;52.148;4.466;2022-10-31T06:45:08;4.47;;;2.20;;
67981;SDS011;64109;52.148;4.466;2022-10-31T06:47:34;4.68;;;3.55;;
67981;SDS011;64109;52.148;4.466;2022-10-31T06:50:00;4.70;;;2.80;;
67981;SDS011;64109;52.148;4.466;2022-10-31T06:52:25;3.97;;;2.92;;
67981;SDS011;64109;52.148;4.466;2022-10-31T06:54:51;4.05;;;2.85;;
67981;SDS011;64109;52.148;4.466;2022-10-31T06:57:17;6.72;;;2.00;;
67981;SDS011;64109;52.148;4.466;2022-10-31T06:59:43;5.05;;;1.95;;
67981;SDS011;64109;52.148;4.466;2022-10-31T07:02:10;6.45;;;3.03;;
67981;SDS011;64109;52.148;4.466;2022-10-31T07:04:36;3.72;;;2.25;;
67981;SDS011;64109;52.148;4.466;2022-10-31T07:07:02;4.50;;;2.90;;
67981;SDS011;64109;52.148;4.466;2022-10-31T07:09:28;4.78;;;2.85;;
67981;SDS011;64109;52.148;4.466;2022-10-31T07:11:54;4.90;;;2.88;;
67981;SDS011;64109;52.148;4.466;2022-10-31T07:14:20;4.88;;;1.95;;
67981;SDS011;64109;52.148;4.466;2022-10-31T07:16:49;5.10;;;2.80;;
67981;SDS011;64109;52.148;4.466;2022-10-31T07:19:16;4.68;;;2.58;;
67981;SDS011;64109;52.148;4.466;2022-10-31T07:21:42;4.30;;;2.92;;
67981;SDS011;64109;52.148;4.466;2022-10-31T07:24:08;4.45;;;3.08;;
67981;SDS011;64109;52.148;4.466;2022-10-31T07:26:34;9.00;;;3.08;;
67981;SDS011;64109;52.148;4.466;2022-10-31T07:29:00;7.00;;;2.95;;
67981;SDS011;64109;52.148;4.466;2022-10-31T07:31:26;6.97;;;3.30;;
67981;SDS011;64109;52.148;4.466;2022-10-31T07:33:52;7.85;;;3.35;;
67981;SDS011;64109;52.148;4.466;2022-10-31T07:36:17;4.97;;;3.35;;
67981;SDS011;64109;52.148;4.466;2022-10-31T07:38:43;6.40;;;3.80;;
67981;SDS011;64109;52.148;4.466;2022-10-31T07:41:09;6.97;;;2.63;;
67981;SDS011;64109;52.148;4.466;2022-10-31T07:43:35;6.05;;;3.53;;
67981;SDS011;64109;52.148;4.466;2022-10-31T07:46:01;7.07;;;3.45;;
67981;SDS011;64109;52.148;4.466;2022-10-31T07:48:27;6.63;;;3.30;;
67981;SDS011;64109;52.148;4.466;2022-10-31T07:50:54;4.75;;;3.47;;
67981;SDS011;64109;52.148;4.466;2022-10-31T07:53:20;6.13;;;3.58;;
67981;SDS011;64109;52.148;4.466;2022-10-31T07:55:46;4.28;;;3.45;;
67981;SDS011;64109;52.148;4.466;2022-10-31T07:58:13;7.25;;;4.07;;
67981;SDS011;64109;52.148;4.466;2022-10-31T08:00:39;6.10;;;3.78;;
67981;SDS011;64109;52.148;4.466;2022-10-31T08:03:16;6.20;;;3.33;;
67981;SDS011;64109;52.148;4.466;2022-10-31T08:05:42;6.13;;;4.18;;
67981;SDS011;64109;52.148;4.466;2022-10-31T08:08:10;4.63;;;3.15;;
67981;SDS011;64109;52.148;4.466;2022-10-31T08:10:37;4.28;;;3.28;;
67981;SDS011;64109;52.148;4.466;2022-10-31T08:15:29;6.32;;;3.97;;
67981;SDS011;64109;52.148;4.466;2022-10-31T08:17:55;5.68;;;4.57;;
67981;SDS011;64109;52.148;4.466;2022-10-31T08:20:21;6.28;;;4.00;;
67981;SDS011;64109;52.148;4.466;2022-10-31T08:22:57;7.85;;;4.47;;
67981;SDS011;64109;52.148;4.466;2022-10-31T08:25:23;5.85;;;3.90;;
67981;SDS011;64109;52.148;4.466;2022-10-31T08:27:50;5.30;;;3.40;;
67981;SDS011;64109;52.148;4.466;2022-10-31T08:30:16;6.35;;;3.65;;
67981;SDS011;64109;52.148;4.466;2022-10-31T08:32:42;8.15;;;3.75;;
67981;SDS011;64109;52.148;4.466;2022-10-31T08:35:08;5.47;;;3.25;;
67981;SDS011;64109;52.148;4.466;2022-10-31T08:37:34;5.90;;;4.00;;
67981;SDS011;64109;52.148;4.466;2022-10-31T08:40:00;5.30;;;3.13;;
67981;SDS011;64109;52.148;4.466;2022-10-31T08:42:26;4.35;;;3.13;;
67981;SDS011;64109;52.148;4.466;2022-10-31T08:44:52;5.43;;;3.33;;
67981;SDS011;64109;52.148;4.466;2022-10-31T08:47:18;6.72;;;3.67;;
67981;SDS011;64109;52.148;4.466;2022-10-31T08:49:44;6.25;;;3.60;;
67981;SDS011;64109;52.148;4.466;2022-10-31T08:52:10;7.55;;;4.95;;
67981;SDS011;64109;52.148;4.466;2022-10-31T08:54:36;8.05;;;4.10;;
67981;SDS011;64109;52.148;4.466;2022-10-31T08:57:02;5.22;;;3.50;;
67981;SDS011;64109;52.148;4.466;2022-10-31T08:59:28;5.32;;;2.70;;
67981;SDS011;64109;52.148;4.466;2022-10-31T09:01:54;6.82;;;4.00;;
67981;SDS011;64109;52.148;4.466;2022-10-31T09:04:20;7.45;;;4.30;;
67981;SDS011;64109;52.148;4.466;2022-10-31T09:06:46;7.13;;;4.85;;
67981;SDS011;64109;52.148;4.466;2022-10-31T09:09:12;8.23;;;5.95;;
67981;SDS011;64109;52.148;4.466;2022-10-31T09:11:38;7.22;;;4.95;;
67981;SDS011;64109;52.148;4.466;2022-10-31T09:14:04;8.57;;;5.22;;
67981;SDS011;64109;52.148;4.466;2022-10-31T09:16:30;8.93;;;4.72;;
67981;SDS011;64109;52.148;4.466;2022-10-31T09:18:55;6.05;;;4.05;;
67981;SDS011;64109;52.148;4.466;2022-10-31T09:21:21;5.78;;;4.53;;
67981;SDS011;64109;52.148;4.466;2022-10-31T09:23:47;7.05;;;5.38;;
67981;SDS011;64109;52.148;4.466;2022-10-31T09:26:13;8.02;;;5.18;;
67981;SDS011;64109;52.148;4.466;2022-10-31T09:28:39;7.00;;;5.22;;
67981;SDS011;64109;52.148;4.466;2022-10-31T09:31:05;7.60;;;4.80;;
67981;SDS011;64109;52.148;4.466;2022-10-31T09:33:31;6.65;;;4.75;;
67981;SDS011;64109;52.148;4.466;2022-10-31T09:35:58;6.63;;;4.75;;
67981;SDS011;64109;52.148;4.466;2022-10-31T09:38:24;8.38;;;5.38;;
67981;SDS011;64109;52.148;4.466;2022-10-31T09:50:57;7.60;;;4.88;;
67981;SDS011;64109;52.148;4.466;2022-10-31T09:55:53;7.43;;;4.28;;
67981;SDS011;64109;52.148;4.466;2022-10-31T09:58:20;6.88;;;4.90;;
67981;SDS011;64109;52.148;4.466;2022-10-31T10:00:48;6.80;;;4.50;;
67981;SDS011;64109;52.148;4.466;2022-10-31T10:03:21;7.22;;;5.55;;
67981;SDS011;64109;52.148;4.466;2022-10-31T10:08:19;10.45;;;4.95;;
67981;SDS011;64109;52.148;4.466;2022-10-31T10:16:25;7.40;;;4.28;;
67981;SDS011;64109;52.148;4.466;2022-10-31T10:18:38;7.05;;;4.75;;
67981;SDS011;64109;52.148;4.466;2022-10-31T10:23:56;6.40;;;4.80;;
67981;SDS011;64109;52.148;4.466;2022-10-31T10:26:31;8.02;;;4.88;;
67981;SDS011;64109;52.148;4.466;2022-10-31T10:31:44;6.10;;;4.90;;
67981;SDS011;64109;52.148;4.466;2022-10-31T10:36:44;7.25;;;4.68;;
67981;SDS011;64109;52.148;4.466;2022-10-31T10:39:13;6.15;;;4.57;;
67981;SDS011;64109;52.148;4.466;2022-10-31T10:41:41;6.28;;;4.65;;
67981;SDS011;64109;52.148;4.466;2022-10-31T10:44:08;7.50;;;5.10;;
67981;SDS011;64109;52.148;4.466;2022-10-31T10:46:49;5.75;;;4.18;;
67981;SDS011;64109;52.148;4.466;2022-10-31T10:52:14;7.30;;;4.72;;
67981;SDS011;64109;52.148;4.466;2022-10-31T10:54:46;7.78;;;4.57;;
67981;SDS011;64109;52.148;4.466;2022-10-31T10:57:20;8.30;;;4.55;;
67981;SDS011;64109;52.148;4.466;2022-10-31T10:59:47;6.95;;;4.03;;
67981;SDS011;64109;52.148;4.466;2022-10-31T11:02:17;6.85;;;4.55;;
67981;SDS011;64109;52.148;4.466;2022-10-31T11:04:43;7.53;;;4.88;;
67981;SDS011;64109;52.148;4.466;2022-10-31T11:07:11;7.35;;;4.18;;
67981;SDS011;64109;52.148;4.466;2022-10-31T11:09:37;7.20;;;4.75;;
67981;SDS011;64109;52.148;4.466;2022-10-31T11:12:10;12.07;;;4.63;;
67981;SDS011;64109;52.148;4.466;2022-10-31T11:14:42;9.57;;;4.93;;
67981;SDS011;64109;52.148;4.466;2022-10-31T11:17:10;6.32;;;4.57;;
67981;SDS011;64109;52.148;4.466;2022-10-31T11:19:36;6.78;;;3.53;;
67981;SDS011;64109;52.148;4.466;2022-10-31T11:22:06;7.57;;;4.85;;
67981;SDS011;64109;52.148;4.466;2022-10-31T11:24:36;7.43;;;4.38;;
67981;SDS011;64109;52.148;4.466;2022-10-31T11:27:11;6.00;;;4.30;;
67981;SDS011;64109;52.148;4.466;2022-10-31T11:32:04;6.90;;;4.28;;
67981;SDS011;64109;52.148;4.466;2022-10-31T11:34:31;6.20;;;4.75;;
67981;SDS011;64109;52.148;4.466;2022-10-31T11:37:14;10.13;;;5.07;;
67981;SDS011;64109;52.148;4.466;2022-10-31T11:39:42;6.40;;;4.00;;
67981;SDS011;64109;52.148;4.466;2022-10-31T11:42:09;5.53;;;4.45;;
67981;SDS011;64109;52.148;4.466;2022-10-31T11:44:35;7.55;;;4.47;;
67981;SDS011;64109;52.148;4.466;2022-10-31T11:47:02;6.70;;;3.55;;
67981;SDS011;64109;52.148;4.466;2022-10-31T11:49:38;8.20;;;5.25;;
67981;SDS011;64109;52.148;4.466;2022-10-31T11:52:47;7.72;;;5.47;;
67981;SDS011;64109;52.148;4.466;2022-10-31T11:54:55;10.90;;;3.83;;
67981;SDS011;64109;52.148;4.466;2022-10-31T11:57:25;8.35;;;4.43;;
67981;SDS011;64109;52.148;4.466;2022-10-31T11:59:56;7.38;;;4.65;;
67981;SDS011;64109;52.148;4.466;2022-10-31T12:02:22;6.72;;;4.20;;
67981;SDS011;64109;52.148;4.466;2022-10-31T12:04:55;7.53;;;4.75;;
67981;SDS011;64109;52.148;4.466;2022-10-31T12:07:23;7.32;;;4.47;;
67981;SDS011;64109;52.148;4.466;2022-10-31T12:09:49;8.45;;;4.38;;
67981;SDS011;64109;52.148;4.466;2022-10-31T12:12:25;7.20;;;3.40;;
67981;SDS011;64109;52.148;4.466;2022-10-31T12:17:40;11.25;;;4.85;;
67981;SDS011;64109;52.148;4.466;2022-10-31T12:20:29;5.22;;;3.00;;
67981;SDS011;64109;52.148;4.466;2022-10-31T12:27:59;5.65;;;2.95;;
67981;SDS011;64109;52.148;4.466;2022-10-31T12:35:47;9.05;;;4.43;;
67981;SDS011;64109;52.148;4.466;2022-10-31T12:38:19;6.35;;;3.80;;
67981;SDS011;64109;52.148;4.466;2022-10-31T12:41:02;5.75;;;4.47;;
67981;SDS011;64109;52.148;4.466;2022-10-31T12:44:22;5.88;;;4.00;;
67981;SDS011;64109;52.148;4.466;2022-10-31T12:54:14;6.60;;;3.75;;
67981;SDS011;64109;52.148;4.466;2022-10-31T12:59:42;5.78;;;3.95;;
67981;SDS011;64109;52.148;4.466;2022-10-31T13:07:02;5.68;;;3.67;;
67981;SDS011;64109;52.148;4.466;2022-10-31T13:09:31;5.93;;;3.17;;
67981;SDS011;64109;52.148;4.466;2022-10-31T13:12:01;8.13;;;4.07;;
67981;SDS011;64109;52.148;4.466;2022-10-31T13:16:57;6.03;;;3.53;;
67981;SDS011;64109;52.148;4.466;2022-10-31T13:19:29;5.18;;;3.67;;
67981;SDS011;64109;52.148;4.466;2022-10-31T13:24:29;4.90;;;3.55;;
67981;SDS011;64109;52.148;4.466;2022-10-31T13:26:57;6.82;;;4.28;;
67981;SDS011;64109;52.148;4.466;2022-10-31T13:29:33;5.40;;;4.05;;
67981;SDS011;64109;52.148;4.466;2022-10-31T13:32:00;5.30;;;3.35;;
67981;SDS011;64109;52.148;4.466;2022-10-31T13:34:36;4.70;;;3.90;;
67981;SDS011;64109;52.148;4.466;2022-10-31T13:39:41;7.43;;;4.30;;
67981;SDS011;64109;52.148;4.466;2022-10-31T13:44:42;6.85;;;4.03;;
67981;SDS011;64109;52.148;4.466;2022-10-31T13:47:25;6.32;;;3.85;;
67981;SDS011;64109;52.148;4.466;2022-10-31T13:49:51;5.82;;;4.50;;
67981;SDS011;64109;52.148;4.466;2022-10-31T13:52:29;5.68;;;3.47;;
67981;SDS011;64109;52.148;4.466;2022-10-31T13:54:55;7.50;;;4.97;;
67981;SDS011;64109;52.148;4.466;2022-10-31T13:57:31;5.88;;;4.68;;
67981;SDS011;64109;52.148;4.466;2022-10-31T14:00:00;6.25;;;4.03;;
67981;SDS011;64109;52.148;4.466;2022-10-31T14:02:30;6.05;;;4.03;;
67981;SDS011;64109;52.148;4.466;2022-10-31T14:05:06;5.28;;;4.50;;
67981;SDS011;64109;52.148;4.466;2022-10-31T14:07:44;6.18;;;3.72;;
67981;SDS011;64109;52.148;4.466;2022-10-31T14:10:21;6.50;;;3.65;;
67981;SDS011;64109;52.148;4.466;2022-10-31T14:12:48;6.28;;;4.53;;
67981;SDS011;64109;52.148;4.466;2022-10-31T14:15:15;6.13;;;4.20;;
67981;SDS011;64109;52.148;4.466;2022-10-31T14:20:26;5.53;;;4.10;;
67981;SDS011;64109;52.148;4.466;2022-10-31T14:22:57;6.47;;;4.57;;
67981;SDS011;64109;52.148;4.466;2022-10-31T14:27:52;6.10;;;4.43;;
67981;SDS011;64109;52.148;4.466;2022-10-31T14:30:19;6.65;;;4.20;;
67981;SDS011;64109;52.148;4.466;2022-10-31T14:32:54;7.90;;;5.07;;
67981;SDS011;64109;52.148;4.466;2022-10-31T14:35:23;6.25;;;4.22;;
67981;SDS011;64109;52.148;4.466;2022-10-31T14:38:00;5.68;;;4.28;;
67981;SDS011;64109;52.148;4.466;2022-10-31T14:43:26;6.78;;;4.70;;
67981;SDS011;64109;52.148;4.466;2022-10-31T14:45:56;7.72;;;4.95;;
67981;SDS011;64109;52.148;4.466;2022-10-31T14:48:30;6.30;;;4.50;;
67981;SDS011;64109;52.148;4.466;2022-10-31T14:51:01;7.85;;;4.43;;
67981;SDS011;64109;52.148;4.466;2022-10-31T14:53:30;7.13;;;4.47;;
67981;SDS011;64109;52.148;4.466;2022-10-31T14:55:58;7.97;;;5.00;;
67981;SDS011;64109;52.148;4.466;2022-10-31T14:58:28;6.28;;;3.30;;
67981;SDS011;64109;52.148;4.466;2022-10-31T15:00:57;8.02;;;4.65;;
67981;SDS011;64109;52.148;4.466;2022-10-31T15:03:28;7.68;;;4.75;;
67981;SDS011;64109;52.148;4.466;2022-10-31T15:05:56;6.32;;;3.85;;
67981;SDS011;64109;52.148;4.466;2022-10-31T15:10:52;7.35;;;5.10;;
67981;SDS011;64109;52.148;4.466;2022-10-31T15:13:19;6.32;;;4.82;;
67981;SDS011;64109;52.148;4.466;2022-10-31T15:15:47;6.50;;;4.40;;
67981;SDS011;64109;52.148;4.466;2022-10-31T15:18:16;7.15;;;4.97;;
67981;SDS011;64109;52.148;4.466;2022-10-31T15:20:43;6.43;;;3.92;;
67981;SDS011;64109;52.148;4.466;2022-10-31T15:23:10;6.78;;;4.75;;
67981;SDS011;64109;52.148;4.466;2022-10-31T15:25:36;8.88;;;3.92;;
67981;SDS011;64109;52.148;4.466;2022-10-31T15:28:12;5.95;;;4.30;;
67981;SDS011;64109;52.148;4.466;2022-10-31T15:30:38;7.43;;;4.78;;
67981;SDS011;64109;52.148;4.466;2022-10-31T15:33:16;7.28;;;4.55;;
67981;SDS011;64109;52.148;4.466;2022-10-31T15:35:53;8.73;;;4.68;;
67981;SDS011;64109;52.148;4.466;2022-10-31T15:38:20;6.72;;;4.68;;
67981;SDS011;64109;52.148;4.466;2022-10-31T15:40:52;7.57;;;5.15;;
67981;SDS011;64109;52.148;4.466;2022-10-31T15:43:20;8.60;;;4.40;;
67981;SDS011;64109;52.148;4.466;2022-10-31T15:45:46;8.23;;;5.00;;
67981;SDS011;64109;52.148;4.466;2022-10-31T15:48:15;9.23;;;5.50;;
67981;SDS011;64109;52.148;4.466;2022-10-31T15:50:50;8.30;;;5.45;;
67981;SDS011;64109;52.148;4.466;2022-10-31T15:53:21;6.47;;;4.57;;
67981;SDS011;64109;52.148;4.466;2022-10-31T15:55:51;8.10;;;5.20;;
67981;SDS011;64109;52.148;4.466;2022-10-31T15:58:18;8.70;;;4.70;;
67981;SDS011;64109;52.148;4.466;2022-10-31T16:00:44;8.50;;;5.47;;
67981;SDS011;64109;52.148;4.466;2022-10-31T16:10:47;9.60;;;5.72;;
67981;SDS011;64109;52.148;4.466;2022-10-31T16:13:13;7.07;;;3.97;;
67981;SDS011;64109;52.148;4.466;2022-10-31T16:15:45;8.40;;;5.00;;
67981;SDS011;64109;52.148;4.466;2022-10-31T16:18:13;8.00;;;5.80;;
67981;SDS011;64109;52.148;4.466;2022-10-31T16:20:39;9.00;;;5.38;;
67981;SDS011;64109;52.148;4.466;2022-10-31T16:23:05;7.72;;;3.88;;
67981;SDS011;64109;52.148;4.466;2022-10-31T16:25:35;8.20;;;5.60;;
67981;SDS011;64109;52.148;4.466;2022-10-31T16:28:21;8.90;;;4.10;;
67981;SDS011;64109;52.148;4.466;2022-10-31T16:30:49;7.38;;;4.93;;
67981;SDS011;64109;52.148;4.466;2022-10-31T16:35:49;9.60;;;4.55;;
67981;SDS011;64109;52.148;4.466;2022-10-31T16:38:15;9.05;;;5.40;;
67981;SDS011;64109;52.148;4.466;2022-10-31T16:40:41;8.25;;;5.43;;
67981;SDS011;64109;52.148;4.466;2022-10-31T16:43:14;6.32;;;4.95;;
67981;SDS011;64109;52.148;4.466;2022-10-31T16:45:44;10.52;;;5.70;;
67981;SDS011;64109;52.148;4.466;2022-10-31T16:48:11;8.57;;;5.35;;
67981;SDS011;64109;52.148;4.466;2022-10-31T16:50:39;8.52;;;5.55;;
67981;SDS011;64109;52.148;4.466;2022-10-31T16:53:05;8.00;;;4.93;;
67981;SDS011;64109;52.148;4.466;2022-10-31T16:55:32;8.02;;;4.95;;
67981;SDS011;64109;52.148;4.466;2022-10-31T16:58:00;8.70;;;5.20;;
67981;SDS011;64109;52.148;4.466;2022-10-31T17:00:26;8.20;;;5.05;;
67981;SDS011;64109;52.148;4.466;2022-10-31T17:02:53;7.20;;;5.00;;
67981;SDS011;64109;52.148;4.466;2022-10-31T17:05:21;10.18;;;6.45;;
67981;SDS011;64109;52.148;4.466;2022-10-31T17:07:53;8.85;;;5.38;;
67981;SDS011;64109;52.148;4.466;2022-10-31T17:10:19;7.20;;;5.05;;